Janet — 9HSL8 — position and weather

sailwx.info

Track history (hours):
 
Tides and Currents Weather Stations Pressure Air Temp Water Temp Dewpoint Dewpoint Depression Visibility Wind Speed Wind Dir Waves Ship Positions

Janet

Last reported at 2015-Sep-02 16:33 UTC. Time now 2015-Sep-02 17:00 UTC.
Position N 44°19' E 008°29'.

Length 90 m; draft 6.4 m.

Type: Cargo ship. MMSI: 256371000.

Date/timePositionNaut miles runAvg speedWind from/ knotsBaromVisibWave heightAir tempDewpointWater temp
2015-Sep-02 16:33N 44°19' E 008°29'0 0.0
2015-Sep-02 15:33N 44°19' E 008°29'0 0.0
2015-Sep-02 14:33N 44°19' E 008°29'0 0.0
2015-Sep-02 13:33N 44°19' E 008°29'0 0.0
2015-Sep-02 12:33N 44°19' E 008°29'0 0.0
2015-Sep-02 11:33N 44°19' E 008°29'0 0.0
2015-Sep-02 10:33N 44°19' E 008°29'0 0.0
2015-Sep-02 09:33N 44°19' E 008°29'0 0.0
2015-Sep-02 08:33N 44°19' E 008°29'0 0.0
2015-Sep-02 07:33N 44°19' E 008°29'0 0.0
2015-Sep-02 06:33N 44°19' E 008°29'0 0.0
2015-Sep-02 05:30N 44°19' E 008°29'0 0.0
2015-Sep-02 04:33N 44°19' E 008°29'1 0.6
2015-Sep-02 03:34N 44°18' E 008°30'0 0.0
2015-Sep-02 02:33N 44°18' E 008°30'0 0.0
2015-Sep-02 01:33N 44°18' E 008°30'0 0.0
2015-Sep-02 00:33N 44°18' E 008°30'0 0.0
2015-Sep-01 23:33N 44°18' E 008°30'0 0.0
2015-Sep-01 22:33N 44°18' E 008°30'0 0.0
2015-Sep-01 21:33N 44°18' E 008°30'0 0.0
2015-Sep-01 20:33N 44°18' E 008°30'0 0.1
2015-Sep-01 19:34N 44°18' E 008°30'7 7.0
2015-Sep-01 18:33N 44°11' E 008°29'1010.1
2015-Sep-01 17:33N 44°01' E 008°25'2110.1
2015-Sep-01 15:30N 43°45' E 008°08'2010.4
2015-Sep-01 13:33N 43°29' E 007°51'1110.5
2015-Sep-01 12:33N 43°20' E 007°43'1110.8
2015-Sep-01 11:33N 43°11' E 007°34'2610.5
2015-Sep-01 09:03N 42°49' E 007°15'510.6
2015-Sep-01 08:33N 42°45' E 007°11'1110.7
2015-Sep-01 07:33N 42°36' E 007°03'1111.1
2015-Sep-01 06:32N 42°26' E 006°55'1111.1
2015-Sep-01 05:33N 42°17' E 006°46'2410.6
2015-Sep-01 03:20N 41°58' E 006°29'20510.3
2015-Aug-31 07:21N 39°17' E 003°41'810.1
2015-Aug-31 06:33N 39°12' E 003°33'1010.0
2015-Aug-31 05:33N 39°07' E 003°22'1010.0
2015-Aug-31 04:33N 39°02' E 003°11'1010.0
2015-Aug-31 03:33N 38°56' E 003°00'10 9.8
2015-Aug-31 02:33N 38°51' E 002°50'10 9.7
2015-Aug-31 01:33N 38°46' E 002°39'10 9.6
2015-Aug-31 00:32N 38°41' E 002°29'139 9.9
2015-Aug-30 10:30N 37°27' W 000°01'404 8.1
2015-Aug-28 08:33N 36°22' W 008°19'1010.4
2015-Aug-28 07:34N 36°24' W 008°31'1010.2
2015-Aug-28 06:33N 36°27' W 008°43'1110.1
2015-Aug-28 05:31N 36°29' W 008°56'10 9.9
2015-Aug-28 04:28N 36°32' W 009°08'12 9.8
2015-Aug-28 03:13N 36°38' W 009°22'1010.5
2015-Aug-28 02:16N 36°45' W 009°31'710.2
2015-Aug-28 01:33N 36°52' W 009°34'1010.4
2015-Aug-28 00:33N 37°02' W 009°37'1010.1
2015-Aug-27 23:33N 37°11' W 009°40'1010.0
2015-Aug-27 22:32N 37°21' W 009°43'10 9.7
2015-Aug-27 21:33N 37°31' W 009°46'1010.2
2015-Aug-27 20:33N 37°41' W 009°48'9 9.4
2015-Aug-27 19:33N 37°50' W 009°51'10 9.4
2015-Aug-27 18:31N 37°59' W 009°54'9 9.8
2015-Aug-27 17:33N 38°08' W 009°57'1010.3
2015-Aug-27 16:33N 38°18' W 010°00'1110.5
2015-Aug-27 15:33N 38°29' W 010°03'1110.6
2015-Aug-27 14:33N 38°39' W 010°06'1010.4
2015-Aug-27 13:33N 38°50' W 010°07'1010.4
2015-Aug-27 12:33N 38°60' W 010°07'1010.0
2015-Aug-27 11:33N 39°10' W 010°06'10 9.9
2015-Aug-27 10:33N 39°20' W 010°06'  
2015-Aug-23 21:05N 50°02' W 002°42'  
Track history (hours):
 
Tides and Currents Weather Stations Pressure Air Temp Water Temp Dewpoint Dewpoint Depression Visibility Wind Speed Wind Dir Waves Ship Positions

Janet

Last reported at 2015-Sep-02 16:33 UTC. Time now 2015-Sep-02 17:00 UTC.
Position N 44°19' E 008°29'.

Length 90 m; draft 6.4 m.

Type: Cargo ship. MMSI: 256371000.

Date/timePositionNaut miles runAvg speedWind from/ knotsBaromVisibWave heightAir tempDewpointWater temp
2015-Sep-02 16:33N 44°19' E 008°29'0 0.0
2015-Sep-02 15:33N 44°19' E 008°29'0 0.0
2015-Sep-02 14:33N 44°19' E 008°29'0 0.0
2015-Sep-02 13:33N 44°19' E 008°29'0 0.0
2015-Sep-02 12:33N 44°19' E 008°29'0 0.0
2015-Sep-02 11:33N 44°19' E 008°29'0 0.0
2015-Sep-02 10:33N 44°19' E 008°29'0 0.0
2015-Sep-02 09:33N 44°19' E 008°29'0 0.0
2015-Sep-02 08:33N 44°19' E 008°29'0 0.0
2015-Sep-02 07:33N 44°19' E 008°29'0 0.0
2015-Sep-02 06:33N 44°19' E 008°29'0 0.0
2015-Sep-02 05:30N 44°19' E 008°29'0 0.0
2015-Sep-02 04:33N 44°19' E 008°29'1 0.6
2015-Sep-02 03:34N 44°18' E 008°30'0 0.0
2015-Sep-02 02:33N 44°18' E 008°30'0 0.0
2015-Sep-02 01:33N 44°18' E 008°30'0 0.0
2015-Sep-02 00:33N 44°18' E 008°30'0 0.0
2015-Sep-01 23:33N 44°18' E 008°30'0 0.0
2015-Sep-01 22:33N 44°18' E 008°30'0 0.0
2015-Sep-01 21:33N 44°18' E 008°30'0 0.0
2015-Sep-01 20:33N 44°18' E 008°30'0 0.1
2015-Sep-01 19:34N 44°18' E 008°30'7 7.0
2015-Sep-01 18:33N 44°11' E 008°29'1010.1
2015-Sep-01 17:33N 44°01' E 008°25'2110.1
2015-Sep-01 15:30N 43°45' E 008°08'2010.4
2015-Sep-01 13:33N 43°29' E 007°51'1110.5
2015-Sep-01 12:33N 43°20' E 007°43'1110.8
2015-Sep-01 11:33N 43°11' E 007°34'2610.5
2015-Sep-01 09:03N 42°49' E 007°15'510.6
2015-Sep-01 08:33N 42°45' E 007°11'1110.7
2015-Sep-01 07:33N 42°36' E 007°03'1111.1
2015-Sep-01 06:32N 42°26' E 006°55'1111.1
2015-Sep-01 05:33N 42°17' E 006°46'2410.6
2015-Sep-01 03:20N 41°58' E 006°29'20510.3
2015-Aug-31 07:21N 39°17' E 003°41'810.1
2015-Aug-31 06:33N 39°12' E 003°33'1010.0
2015-Aug-31 05:33N 39°07' E 003°22'1010.0
2015-Aug-31 04:33N 39°02' E 003°11'1010.0
2015-Aug-31 03:33N 38°56' E 003°00'10 9.8
2015-Aug-31 02:33N 38°51' E 002°50'10 9.7
2015-Aug-31 01:33N 38°46' E 002°39'10 9.6
2015-Aug-31 00:32N 38°41' E 002°29'139 9.9
2015-Aug-30 10:30N 37°27' W 000°01'404 8.1
2015-Aug-28 08:33N 36°22' W 008°19'1010.4
2015-Aug-28 07:34N 36°24' W 008°31'1010.2
2015-Aug-28 06:33N 36°27' W 008°43'1110.1
2015-Aug-28 05:31N 36°29' W 008°56'10 9.9
2015-Aug-28 04:28N 36°32' W 009°08'12 9.8
2015-Aug-28 03:13N 36°38' W 009°22'1010.5
2015-Aug-28 02:16N 36°45' W 009°31'710.2
2015-Aug-28 01:33N 36°52' W 009°34'1010.4
2015-Aug-28 00:33N 37°02' W 009°37'1010.1
2015-Aug-27 23:33N 37°11' W 009°40'1010.0
2015-Aug-27 22:32N 37°21' W 009°43'10 9.7
2015-Aug-27 21:33N 37°31' W 009°46'1010.2
2015-Aug-27 20:33N 37°41' W 009°48'9 9.4
2015-Aug-27 19:33N 37°50' W 009°51'10 9.4
2015-Aug-27 18:31N 37°59' W 009°54'9 9.8
2015-Aug-27 17:33N 38°08' W 009°57'1010.3
2015-Aug-27 16:33N 38°18' W 010°00'1110.5
2015-Aug-27 15:33N 38°29' W 010°03'1110.6
2015-Aug-27 14:33N 38°39' W 010°06'1010.4
2015-Aug-27 13:33N 38°50' W 010°07'1010.4
2015-Aug-27 12:33N 38°60' W 010°07'1010.0
2015-Aug-27 11:33N 39°10' W 010°06'10 9.9
2015-Aug-27 10:33N 39°20' W 010°06'  
2015-Aug-23 21:05N 50°02' W 002°42'  

Dump ship's entire track history